Time;durP1;ratioP1;P1;durP2;ratioP2;P2;SDS_P1;SDS_P2;PMS_P1;PMS_P2;Temp;Humidity;BMP_temperature;BMP_pressure;BME280_temperature;BME280_humidity;BME280_pressure;Samples;Min_cycle;Max_cycle;Signal;HPM_P1;HPM_P2
2023/11/02 00:02:22;;;;;;;8.32;1.90;;;;;;;25.08;41.98;99016.31;4484213;32;33964;-63
2023/11/02 00:04:50;;;;;;;4.22;2.10;;;;;;;25.05;42.12;99011.34;4484465;32;33610;-63
2023/11/02 00:07:18;;;;;;;5.28;2.65;;;;;;;25.06;42.20;99006.72;4484021;32;34043;-63
2023/11/02 00:09:46;;;;;;;6.40;2.25;;;;;;;25.05;42.31;99010.53;4484421;32;33101;-63
2023/11/02 00:12:24;;;;;;;4.70;2.28;;;;;;;25.04;42.34;99006.97;4484193;32;33899;-63
2023/11/02 00:14:52;;;;;;;7.93;2.30;;;;;;;25.04;42.57;99001.53;4471207;32;34739;-65
2023/11/02 00:17:35;;;;;;;3.78;2.00;;;;;;;25.04;42.62;99000.66;4469917;32;34179;-63
2023/11/02 00:20:08;;;;;;;5.18;2.45;;;;;;;25.04;42.51;98998.78;4484087;32;34199;-63
2023/11/02 00:22:43;;;;;;;5.20;2.42;;;;;;;25.03;42.47;98990.84;4479230;32;34525;-63
2023/11/02 00:25:30;;;;;;;9.13;2.20;;;;;;;25.03;42.32;98991.66;4454174;32;34634;-63
2023/11/02 00:27:57;;;;;;;5.75;2.45;;;;;;;25.03;42.29;98983.47;4454618;32;33928;-64
2023/11/02 00:30:25;;;;;;;7.72;2.75;;;;;;;25.02;42.01;98978.28;4468249;32;33314;-63
2023/11/02 00:32:53;;;;;;;6.03;2.45;;;;;;;25.01;41.86;98976.62;4468367;32;33667;-63
2023/11/02 00:35:21;;;;;;;5.82;3.12;;;;;;;24.99;41.48;98968.69;4468186;32;34183;-63
2023/11/02 00:37:49;;;;;;;5.22;2.70;;;;;;;24.98;41.46;98967.03;4468112;32;33950;-64
2023/11/02 00:40:16;;;;;;;5.62;3.10;;;;;;;24.97;41.34;98970.84;4468199;32;33224;-63
2023/11/02 00:42:45;;;;;;;6.43;2.62;;;;;;;24.96;41.26;98963.75;4454149;32;33902;-63
2023/11/02 00:45:13;;;;;;;4.62;2.30;;;;;;;24.95;41.12;98967.56;4467982;32;33731;-64
2023/11/02 00:47:41;;;;;;;7.10;2.75;;;;;;;24.94;41.09;98957.72;4469329;32;33124;-63
2023/11/02 00:50:33;;;;;;;4.18;2.40;;;;;;;24.93;40.92;98956.06;4483765;32;33868;-63
2023/11/02 00:53:01;;;;;;;6.80;2.97;;;;;;;24.94;41.01;98957.72;4483741;32;33865;-63
2023/11/02 00:55:32;;;;;;;6.40;2.67;;;;;;;24.91;40.93;98960.97;4483579;32;33701;-64
2023/11/02 00:58:00;;;;;;;3.80;2.40;;;;;;;24.89;40.89;98953.03;4482472;32;34601;-64
2023/11/02 01:00:51;;;;;;;4.47;2.47;;;;;;;24.88;41.00;98959.56;4482385;32;33440;-64
2023/11/02 01:03:20;;;;;;;5.90;2.75;;;;;;;24.89;40.94;98957.66;4483520;32;33152;-63
2023/11/02 01:05:48;;;;;;;5.78;2.70;;;;;;;24.85;41.10;98957.34;4469497;32;33981;-63
2023/11/02 01:08:16;;;;;;;4.90;2.67;;;;;;;24.85;40.82;98949.16;4483218;32;34661;-64
2023/11/02 01:10:43;;;;;;;5.75;3.00;;;;;;;24.84;40.77;98946.69;4482232;32;33903;-63
2023/11/02 01:13:17;;;;;;;5.30;2.65;;;;;;;24.82;40.57;98946.97;4469133;32;33428;-64
2023/11/02 01:16:09;;;;;;;8.23;3.00;;;;;;;24.82;40.75;98952.41;4482115;32;34724;-63
2023/11/02 01:18:45;;;;;;;6.68;3.10;;;;;;;24.83;40.50;98948.59;4483471;32;33853;-64
2023/11/02 01:21:14;;;;;;;8.18;3.35;;;;;;;24.80;40.54;98962.75;4483337;32;33317;-63
2023/11/02 01:23:41;;;;;;;6.10;3.35;;;;;;;24.78;40.55;98950.47;4470191;32;34081;-63
2023/11/02 01:26:39;;;;;;;6.47;3.40;;;;;;;24.77;40.21;98954.28;4467285;32;34809;-64
2023/11/02 01:29:06;;;;;;;5.65;2.90;;;;;;;24.78;40.31;98962.19;4467614;32;33894;-63
2023/11/02 01:31:34;;;;;;;6.57;3.47;;;;;;;24.75;40.64;98948.22;4469676;32;34683;-64
2023/11/02 01:34:04;;;;;;;6.80;3.12;;;;;;;24.73;40.31;98934.84;4468752;32;33922;-63
2023/11/02 01:36:35;;;;;;;7.28;3.55;;;;;;;24.73;40.27;98950.41;4469560;32;34823;-63
2023/11/02 01:39:09;;;;;;;;;;;;;;;24.71;40.29;98933.44;4455956;32;33737;-63
2023/11/02 01:41:48;;;;;;;4.90;2.62;;;;;;;24.82;40.05;98943.41;4470082;32;33504;-63
2023/11/02 01:44:21;;;;;;;6.30;3.05;;;;;;;24.73;40.50;98944.94;4469565;32;33960;-64
2023/11/02 01:47:03;;;;;;;4.80;3.00;;;;;;;24.70;40.45;98940.81;4460037;32;34784;-63
2023/11/02 01:49:48;;;;;;;6.12;3.05;;;;;;;24.69;40.32;98941.91;4484024;32;34689;-64
2023/11/02 01:52:22;;;;;;;7.55;2.90;;;;;;;24.69;40.25;98939.19;4485256;32;33428;-63
2023/11/02 01:55:15;;;;;;;6.60;2.95;;;;;;;24.67;40.10;98933.16;4484824;32;33913;-64
2023/11/02 01:58:10;;;;;;;5.62;2.60;;;;;;;24.67;40.24;98923.06;4484035;32;33955;-64
2023/11/02 02:01:03;;;;;;;6.12;3.05;;;;;;;24.67;40.34;98924.97;4483999;32;34597;-63
2023/11/02 02:03:37;;;;;;;5.82;3.05;;;;;;;24.65;40.31;98924.41;4473645;32;32884;-63
2023/11/02 02:06:05;;;;;;;4.95;2.50;;;;;;;24.64;40.23;98926.31;4485180;32;33942;-63
2023/11/02 02:08:59;;;;;;;6.78;3.35;;;;;;;24.63;40.11;98921.09;4483879;32;33468;-63
2023/11/02 02:11:39;;;;;;;5.32;3.05;;;;;;;24.63;40.04;98913.75;4483683;32;34724;-63
2023/11/02 02:14:23;;;;;;;5.97;3.08;;;;;;;24.59;39.83;98907.16;4484011;32;33547;-64
2023/11/02 02:16:57;;;;;;;4.82;2.37;;;;;;;24.62;39.79;98917.56;4483854;32;33636;-63
2023/11/02 02:19:25;;;;;;;6.40;2.50;;;;;;;24.57;39.76;98913.94;4483896;31;34095;-63
2023/11/02 02:21:59;;;;;;;4.40;2.62;;;;;;;24.56;39.64;98904.94;4484805;32;33769;-63
2023/11/02 02:24:34;;;;;;;7.12;2.80;;;;;;;24.56;39.72;98910.37;4455189;32;33365;-63
2023/11/02 02:27:46;;;;;;;4.53;2.47;;;;;;;24.55;39.52;98907.91;4467968;32;33481;-63
2023/11/02 02:30:39;;;;;;;5.53;2.92;;;;;;;24.56;39.65;98917.75;4435731;32;33793;-63
2023/11/02 02:33:44;;;;;;;5.57;2.33;;;;;;;24.56;39.40;98917.75;4468250;32;33707;-63
2023/11/02 02:36:46;;;;;;;4.90;2.83;;;;;;;24.53;39.34;98900.00;4468005;32;33780;-64
2023/11/02 02:39:17;;;;;;;6.10;3.10;;;;;;;24.53;39.32;98913.63;4435239;32;33757;-64
2023/11/02 02:41:45;;;;;;;5.70;2.53;;;;;;;24.48;39.35;98913.59;4466922;32;34922;-64
2023/11/02 02:44:14;;;;;;;5.07;3.00;;;;;;;24.48;39.38;98908.12;4467972;32;33731;-64
2023/11/02 02:46:41;;;;;;;7.35;2.95;;;;;;;24.47;39.39;98892.81;4469171;32;33508;-64
2023/11/02 02:49:09;;;;;;;5.10;2.22;;;;;;;24.47;39.31;98903.72;4468929;32;33486;-63
2023/11/02 02:51:36;;;;;;;5.68;2.72;;;;;;;24.47;39.38;98897.47;4469224;32;33597;-63
2023/11/02 02:54:08;;;;;;;4.25;2.67;;;;;;;24.47;39.36;98897.47;4455075;32;33226;-63
2023/11/02 02:56:37;;;;;;;4.28;2.58;;;;;;;24.47;39.40;98903.72;4469065;32;33364;-64
2023/11/02 02:59:09;;;;;;;8.60;3.28;;;;;;;24.46;39.29;98906.72;4455085;32;33775;-64
2023/11/02 03:01:40;;;;;;;5.50;2.40;;;;;;;24.45;39.14;98891.44;4467955;32;33968;-64
2023/11/02 03:04:10;;;;;;;4.97;2.60;;;;;;;24.44;39.21;98896.06;4467851;32;33918;-63
2023/11/02 03:06:49;;;;;;;4.47;2.58;;;;;;;24.44;39.06;98882.44;4467967;32;34139;-63
2023/11/02 03:09:19;;;;;;;6.10;2.92;;;;;;;24.44;39.00;98890.63;4467985;32;33602;-64
2023/11/02 03:11:47;;;;;;;;;;;;;;;24.42;39.09;98876.41;4469375;32;34710;-64
2023/11/02 03:14:16;;;;;;;5.37;2.95;;;;;;;24.50;38.87;98886.88;4468987;32;35075;-64
2023/11/02 03:16:43;;;;;;;5.00;2.67;;;;;;;24.42;38.92;98879.94;4454983;32;33767;-64
2023/11/02 03:19:47;;;;;;;7.53;2.65;;;;;;;24.38;39.00;98876.09;4468950;32;33980;-63
2023/11/02 03:22:20;;;;;;;5.65;2.80;;;;;;;24.40;39.02;98881.31;4470137;32;34146;-64
2023/11/02 03:25:01;;;;;;;4.95;2.70;;;;;;;24.37;38.99;98879.91;4483354;32;33917;-64
2023/11/02 03:27:39;;;;;;;5.65;2.58;;;;;;;24.37;39.04;98879.91;4483399;32;33637;-64
2023/11/02 03:30:15;;;;;;;6.07;2.83;;;;;;;24.34;38.96;98877.66;4483430;32;35333;-63
2023/11/02 03:33:12;;;;;;;5.53;2.58;;;;;;;24.34;39.06;98882.28;4483286;32;34080;-63
2023/11/02 03:35:49;;;;;;;5.75;2.90;;;;;;;24.34;39.43;98885.84;4474631;32;33542;-64
2023/11/02 03:38:46;;;;;;;5.93;2.83;;;;;;;24.34;39.53;98876.81;4483447;32;33344;-63
2023/11/02 03:41:37;;;;;;;5.20;2.95;;;;;;;24.34;39.54;98874.09;4482537;32;33950;-63
2023/11/02 03:44:17;;;;;;;6.00;3.20;;;;;;;24.37;39.46;98873.63;4478320;32;34666;-63
2023/11/02 03:47:01;;;;;;;5.57;3.20;;;;;;;24.34;39.43;98863.19;4483244;32;34553;-63
2023/11/02 03:49:37;;;;;;;8.05;3.50;;;;;;;24.33;39.38;98867.81;4483141;32;34115;-63
2023/11/02 03:52:23;;;;;;;10.55;3.33;;;;;;;24.33;39.33;98861.53;4482694;32;33698;-64
2023/11/02 03:55:12;;;;;;;5.87;3.42;;;;;;;24.34;39.33;98863.19;4484443;32;34745;-64
2023/11/02 03:57:50;;;;;;;6.47;3.05;;;;;;;24.30;39.21;98862.06;4484064;32;34695;-63
2023/11/02 04:00:20;;;;;;;5.90;3.35;;;;;;;24.31;39.35;98861.00;4483254;32;32650;-63
2023/11/02 04:02:52;;;;;;;5.95;3.40;;;;;;;24.29;39.35;98852.22;4470273;32;34031;-64
2023/11/02 04:05:24;;;;;;;7.65;3.25;;;;;;;24.29;39.21;98855.78;4483021;32;34577;-63
2023/11/02 04:08:03;;;;;;;6.25;3.37;;;;;;;24.29;39.34;98849.50;4484338;32;34090;-63
2023/11/02 04:10:31;;;;;;;6.97;3.60;;;;;;;24.30;39.23;98835.63;4484296;32;33964;-63
2023/11/02 04:13:16;;;;;;;6.72;3.45;;;;;;;24.28;39.20;98847.84;4470250;32;33659;-63
2023/11/02 04:15:43;;;;;;;7.35;3.53;;;;;;;24.29;39.04;98835.87;4470681;32;33679;-64
2023/11/02 04:18:11;;;;;;;7.07;3.60;;;;;;;24.26;38.93;98839.94;4484066;32;35300;-63
2023/11/02 04:20:38;;;;;;;7.22;3.12;;;;;;;24.25;38.82;98837.47;4483113;32;33270;-63
2023/11/02 04:23:06;;;;;;;6.68;3.17;;;;;;;24.24;38.85;98827.63;4474814;32;33552;-63
2023/11/02 04:25:34;;;;;;;7.93;3.42;;;;;;;24.24;38.85;98827.63;4467150;32;34882;-63
2023/11/02 04:28:01;;;;;;;6.70;3.45;;;;;;;24.23;38.82;98831.44;4468354;32;33825;-63
2023/11/02 04:30:31;;;;;;;7.85;3.55;;;;;;;24.23;38.74;98831.44;4468486;32;33198;-63
2023/11/02 04:32:58;;;;;;;7.70;3.50;;;;;;;24.21;38.95;98823.53;4468420;32;34665;-64
2023/11/02 04:35:26;;;;;;;5.30;2.97;;;;;;;24.22;38.97;98830.62;4468385;32;33986;-64
2023/11/02 04:38:07;;;;;;;6.05;3.83;;;;;;;24.22;39.01;98836.06;4468271;32;33755;-63
2023/11/02 04:40:35;;;;;;;5.57;2.75;;;;;;;24.24;39.03;98827.63;4468252;32;34132;-64
2023/11/02 04:43:03;;;;;;;5.18;3.10;;;;;;;24.23;39.14;98826.81;4468007;32;34503;-63
2023/11/02 04:45:31;;;;;;;6.95;2.95;;;;;;;24.22;38.90;98825.19;4468369;32;33897;-63
2023/11/02 04:47:58;;;;;;;6.37;3.12;;;;;;;24.22;38.85;98830.62;4471527;32;34091;-64
2023/11/02 04:50:27;;;;;;;5.32;2.90;;;;;;;24.22;38.76;98824.34;4483658;32;34067;-63
2023/11/02 04:52:54;;;;;;;5.60;3.20;;;;;;;24.19;38.81;98818.31;4483672;32;33806;-64
2023/11/02 04:55:22;;;;;;;6.28;3.03;;;;;;;24.20;38.72;98821.88;4469564;32;34669;-63
2023/11/02 04:57:49;;;;;;;5.82;3.05;;;;;;;24.21;38.71;98828.16;4483552;32;33650;-63
2023/11/02 05:00:17;;;;;;;6.78;2.80;;;;;;;24.21;38.68;98826.25;4483688;32;33815;-63
2023/11/02 05:02:45;;;;;;;6.78;2.83;;;;;;;24.18;38.50;98819.41;4483523;32;33838;-63
2023/11/02 05:05:13;;;;;;;5.60;2.67;;;;;;;24.19;38.51;98822.94;4484679;32;33829;-64
2023/11/02 05:07:40;;;;;;;7.40;2.83;;;;;;;24.17;38.62;98820.50;4471388;32;34679;-63
2023/11/02 05:10:08;;;;;;;5.87;2.85;;;;;;;24.17;38.55;98817.75;4485514;32;33504;-64
2023/11/02 05:12:36;;;;;;;6.40;3.05;;;;;;;24.16;38.34;98799.78;4485587;32;34615;-64
2023/11/02 05:15:03;;;;;;;4.62;2.62;;;;;;;24.14;38.35;98807.34;4485485;32;34398;-64
2023/11/02 05:17:31;;;;;;;5.30;2.90;;;;;;;24.14;38.46;98817.44;4485331;32;34592;-63
2023/11/02 05:20:02;;;;;;;5.50;2.80;;;;;;;24.14;38.44;98817.44;4485802;31;33338;-63
2023/11/02 05:22:30;;;;;;;7.85;2.53;;;;;;;24.13;38.32;98815.81;4485626;32;34002;-64
2023/11/02 05:24:57;;;;;;;5.60;2.80;;;;;;;24.12;38.45;98814.16;4485281;32;33693;-63
2023/11/02 05:27:25;;;;;;;4.85;2.75;;;;;;;24.11;38.66;98813.34;4485518;32;34107;-63
2023/11/02 05:29:53;;;;;;;8.25;2.97;;;;;;;24.12;38.51;98808.72;4471207;32;33199;-63
2023/11/02 05:32:20;;;;;;;5.72;2.70;;;;;;;24.12;38.43;98797.81;4485120;32;33762;-63
2023/11/02 05:34:48;;;;;;;4.85;2.80;;;;;;;24.11;38.36;98799.72;4485363;32;34683;-64
2023/11/02 05:37:15;;;;;;;4.87;2.70;;;;;;;24.11;38.35;98801.62;4485343;32;33741;-64
2023/11/02 05:39:43;;;;;;;4.32;2.50;;;;;;;24.11;38.40;98804.34;4485107;32;32955;-63
2023/11/02 05:42:10;;;;;;;4.85;2.50;;;;;;;24.12;38.35;98808.72;4485323;32;33562;-63
2023/11/02 05:44:38;;;;;;;4.70;2.75;;;;;;;24.10;38.25;98800.78;4485212;32;33456;-63
2023/11/02 05:47:06;;;;;;;4.82;2.70;;;;;;;24.09;38.37;98799.13;4485059;32;34700;-64
2023/11/02 05:49:33;;;;;;;5.75;2.80;;;;;;;24.08;38.17;98802.13;4485140;32;33232;-63
2023/11/02 05:52:01;;;;;;;4.03;2.37;;;;;;;24.07;38.13;98804.03;4485547;32;33904;-63
2023/11/02 05:54:28;;;;;;;6.97;2.62;;;;;;;24.06;38.08;98804.25;4485057;32;34045;-62
2023/11/02 05:56:56;;;;;;;4.20;2.25;;;;;;;24.06;38.03;98796.09;4485131;32;34708;-64
2023/11/02 05:59:24;;;;;;;4.93;2.30;;;;;;;24.06;37.94;98782.47;4485239;32;33615;-64
2023/11/02 06:01:51;;;;;;;4.85;2.35;;;;;;;24.06;38.08;98782.47;4485060;32;33885;-63
2023/11/02 06:04:19;;;;;;;5.05;2.70;;;;;;;24.05;38.15;98789.81;4485072;32;34750;-63
2023/11/02 06:06:47;;;;;;;5.75;2.78;;;;;;;24.05;38.23;98797.16;4485144;32;34564;-64
2023/11/02 06:09:15;;;;;;;4.43;2.20;;;;;;;24.04;38.13;98790.91;4483818;32;33003;-64
2023/11/02 06:11:43;;;;;;;4.90;2.75;;;;;;;24.04;38.30;98799.06;4485112;32;33614;-64
2023/11/02 06:14:11;;;;;;;5.62;2.42;;;;;;;24.04;38.25;98800.97;4485114;32;33902;-63
2023/11/02 06:16:38;;;;;;;5.62;3.05;;;;;;;24.03;38.20;98791.16;4485007;32;34270;-64
2023/11/02 06:19:06;;;;;;;4.10;2.40;;;;;;;24.02;38.08;98794.97;4484952;32;33532;-63
2023/11/02 06:21:33;;;;;;;5.30;2.65;;;;;;;24.02;38.20;98800.41;4485074;32;33805;-64
2023/11/02 06:24:01;;;;;;;4.20;2.20;;;;;;;24.01;38.11;98796.03;4484786;32;34775;-63
2023/11/02 06:26:29;;;;;;;5.32;2.85;;;;;;;24.00;38.34;98795.19;4484924;32;34767;-63
2023/11/02 06:28:56;;;;;;;7.05;2.47;;;;;;;24.01;38.31;98798.75;4485075;32;33003;-63
2023/11/02 06:31:24;;;;;;;5.03;2.67;;;;;;;23.99;38.28;98793.56;4484789;32;33979;-63
2023/11/02 06:33:51;;;;;;;5.50;2.90;;;;;;;23.99;38.29;98796.28;4484744;32;34572;-64
2023/11/02 06:36:20;;;;;;;6.05;2.80;;;;;;;23.99;38.40;98793.56;4484908;32;34528;-63
2023/11/02 06:38:47;;;;;;;5.45;2.47;;;;;;;24.00;38.34;98799.84;4484699;32;33322;-63
2023/11/02 06:41:15;;;;;;;6.18;2.58;;;;;;;23.99;38.33;98798.19;4484866;32;33828;-64
2023/11/02 06:43:42;;;;;;;5.30;2.83;;;;;;;23.98;38.40;98791.94;4483628;32;33792;-69
2023/11/02 06:46:10;;;;;;;4.53;2.42;;;;;;;23.99;38.51;98792.75;4484498;32;33499;-68
2023/11/02 06:48:38;;;;;;;7.85;2.47;;;;;;;23.99;38.33;98790.84;4484695;32;34587;-68
2023/11/02 06:51:07;;;;;;;5.00;2.60;;;;;;;23.98;38.62;98786.47;4484730;32;34897;-68
2023/11/02 06:53:35;;;;;;;5.20;2.85;;;;;;;23.97;38.66;98783.97;4470874;32;34679;-63
2023/11/02 06:56:04;;;;;;;4.68;2.40;;;;;;;23.98;38.59;98791.94;4484612;32;33851;-68
2023/11/02 06:58:31;;;;;;;5.80;2.70;;;;;;;23.96;38.61;98785.88;4485030;32;32938;-67
2023/11/02 07:01:00;;;;;;;5.07;3.03;;;;;;;23.96;38.59;98788.63;4484560;32;33706;-65
2023/11/02 07:03:28;;;;;;;4.70;2.45;;;;;;;23.95;38.69;98789.69;4458016;32;33765;-64
2023/11/02 07:05:55;;;;;;;4.93;2.67;;;;;;;23.94;38.94;98788.06;4484545;32;33823;-66
2023/11/02 07:08:23;;;;;;;5.12;2.47;;;;;;;23.94;38.97;98785.34;4484591;32;32929;-65
2023/11/02 07:10:51;;;;;;;8.40;2.95;;;;;;;23.94;39.37;98788.06;4484659;32;35336;-68
2023/11/02 07:13:19;;;;;;;18.12;3.22;;;;;;;23.93;39.38;98792.69;4470514;32;33144;-63
2023/11/02 07:15:47;;;;;;;6.65;2.83;;;;;;;23.93;39.44;98784.50;4484666;32;33693;-66
2023/11/02 07:18:15;;;;;;;8.15;3.03;;;;;;;23.94;39.51;98788.06;4484639;32;33574;-67
2023/11/02 07:20:42;;;;;;;6.30;3.03;;;;;;;23.94;39.46;98782.59;4484328;32;34281;-66
2023/11/02 07:23:10;;;;;;;6.12;2.45;;;;;;;23.95;39.63;98786.97;4476235;32;33955;-66
2023/11/02 07:25:40;;;;;;;11.38;2.90;;;;;;;23.96;39.77;98780.44;4468593;32;33600;-68
2023/11/02 07:28:08;;;;;;;8.80;2.80;;;;;;;23.97;40.03;98779.38;4453838;32;33525;-65
2023/11/02 07:30:35;;;;;;;7.05;2.40;;;;;;;24.00;40.21;98758.97;4469105;32;34145;-64
2023/11/02 07:33:03;;;;;;;8.60;2.45;;;;;;;24.00;40.48;98765.22;4468569;32;33800;-68
2023/11/02 07:35:31;;;;;;;5.70;2.50;;;;;;;24.01;40.65;98764.16;4454646;32;34197;-64
2023/11/02 07:37:59;;;;;;;7.65;2.83;;;;;;;24.02;40.79;98757.66;4468759;32;34504;-66
2023/11/02 07:40:27;;;;;;;7.85;2.50;;;;;;;24.05;40.93;98759.00;4468786;32;33904;-67
2023/11/02 07:42:54;;;;;;;6.20;2.60;;;;;;;24.07;41.08;98762.31;4468467;32;33716;-67
2023/11/02 07:45:22;;;;;;;6.20;2.67;;;;;;;24.10;41.29;98762.62;4468597;32;34648;-69
2023/11/02 07:47:49;;;;;;;6.90;2.65;;;;;;;24.12;41.49;98763.19;4471051;32;33549;-66
2023/11/02 07:50:18;;;;;;;6.30;2.72;;;;;;;24.14;41.64;98765.66;4484217;32;34652;-68
2023/11/02 07:52:46;;;;;;;5.62;2.28;;;;;;;24.14;41.73;98755.56;4461592;32;33496;-69
2023/11/02 07:55:14;;;;;;;11.98;2.85;;;;;;;24.18;41.71;98761.34;4467553;32;33771;-64
2023/11/02 07:57:41;;;;;;;8.50;2.40;;;;;;;24.19;41.90;98754.81;4467322;32;33567;-67
2023/11/02 08:00:10;;;;;;;9.85;2.25;;;;;;;24.19;41.82;98747.44;4467686;32;33460;-64
2023/11/02 08:02:37;;;;;;;5.70;1.98;;;;;;;24.22;41.68;98737.13;4467819;32;34119;-64
2023/11/02 08:05:06;;;;;;;6.65;3.05;;;;;;;24.22;41.79;98742.59;4467897;32;34517;-65
2023/11/02 08:07:33;;;;;;;8.60;2.30;;;;;;;24.22;41.78;98743.41;4468244;32;34295;-64
2023/11/02 08:10:01;;;;;;;7.80;2.35;;;;;;;24.23;41.70;98742.31;4454368;32;33998;-65
2023/11/02 08:12:32;;;;;;;6.50;2.97;;;;;;;24.24;41.55;98741.22;4468496;32;33584;-64
2023/11/02 08:15:00;;;;;;;7.80;2.55;;;;;;;24.24;41.54;98738.50;4468493;32;34689;-64
2023/11/02 08:17:28;;;;;;;6.15;2.58;;;;;;;24.25;41.50;98721.09;4468878;32;34315;-65
2023/11/02 08:19:57;;;;;;;6.32;2.42;;;;;;;24.27;41.51;98729.00;4468445;32;34693;-65
2023/11/02 08:22:25;;;;;;;4.68;2.10;;;;;;;24.26;41.45;98721.91;4471669;32;34116;-67
2023/11/02 08:24:52;;;;;;;7.05;2.83;;;;;;;24.27;41.47;98729.00;4483962;32;34810;-65
2023/11/02 08:27:20;;;;;;;5.70;2.50;;;;;;;24.27;41.47;98716.19;4483381;32;33320;-66
2023/11/02 08:29:48;;;;;;;6.43;2.08;;;;;;;24.29;41.48;98713.19;4484038;32;33977;-64
2023/11/02 08:32:15;;;;;;;5.80;2.20;;;;;;;24.29;41.47;98707.75;4483939;32;33891;-65
2023/11/02 08:34:43;;;;;;;5.20;2.37;;;;;;;24.29;41.46;98697.66;4483982;32;33627;-65
2023/11/02 08:37:14;;;;;;;6.47;2.42;;;;;;;24.30;41.45;98701.25;4484005;32;34189;-65
2023/11/02 08:39:41;;;;;;;5.90;2.37;;;;;;;24.30;41.45;98695.78;4483640;32;33849;-65
2023/11/02 08:42:09;;;;;;;5.90;1.83;;;;;;;24.32;41.42;98693.59;4483955;32;33911;-66
2023/11/02 08:44:40;;;;;;;10.00;2.75;;;;;;;24.31;41.46;98689.25;4484135;32;34074;-64
2023/11/02 08:47:12;;;;;;;5.30;2.42;;;;;;;24.32;41.46;98691.69;4470063;32;33472;-65
2023/11/02 08:49:41;;;;;;;5.53;2.45;;;;;;;24.34;41.41;98691.44;4483553;32;33809;-65
2023/11/02 08:52:08;;;;;;;4.40;1.95;;;;;;;24.33;41.43;98685.16;4456687;32;33530;-68
2023/11/02 08:54:36;;;;;;;6.75;2.42;;;;;;;24.35;41.44;98682.19;4474189;32;34605;-66
2023/11/02 08:57:03;;;;;;;5.78;2.42;;;;;;;24.35;41.43;98676.75;4468047;32;34124;-68
2023/11/02 08:59:31;;;;;;;6.87;2.10;;;;;;;24.36;41.52;98683.84;4467936;32;33919;-68
2023/11/02 09:01:59;;;;;;;8.85;2.78;;;;;;;24.35;41.67;98677.56;4467750;32;34647;-70
2023/11/02 09:04:28;;;;;;;10.15;2.12;;;;;;;24.37;41.88;98680.06;4467887;32;34217;-69
2023/11/02 09:06:56;;;;;;;10.98;3.55;;;;;;;24.38;42.13;98676.22;4468005;32;33398;-69
2023/11/02 09:09:24;;;;;;;7.68;2.42;;;;;;;24.38;42.20;98673.50;4467807;32;33620;-67
2023/11/02 09:11:52;;;;;;;5.75;2.28;;;;;;;24.39;42.40;98669.72;4467808;32;34026;-68
2023/11/02 09:14:20;;;;;;;4.85;2.25;;;;;;;24.40;42.48;98666.72;4467666;32;34103;-68
2023/11/02 09:16:48;;;;;;;7.72;2.25;;;;;;;24.39;42.63;98665.09;4466502;32;34408;-68
2023/11/02 09:19:15;;;;;;;4.95;2.05;;;;;;;24.39;42.72;98653.38;4467629;32;33932;-68
2023/11/02 09:21:43;;;;;;;6.10;2.42;;;;;;;24.39;42.79;98654.19;4467575;32;33978;-67
2023/11/02 09:24:11;;;;;;;6.28;2.05;;;;;;;24.40;42.70;98665.91;4482432;32;33677;-65
2023/11/02 09:26:40;;;;;;;6.20;2.10;;;;;;;24.40;42.68;98660.47;4483149;32;33941;-67
2023/11/02 09:29:08;;;;;;;5.67;2.53;;;;;;;24.40;42.62;98660.47;4483013;32;34715;-68
2023/11/02 09:31:36;;;;;;;4.28;1.98;;;;;;;24.40;42.51;98644.91;4483172;32;34859;-69
2023/11/02 09:34:04;;;;;;;6.65;2.25;;;;;;;24.40;42.55;98653.09;4483044;32;34536;-68
2023/11/02 09:36:32;;;;;;;6.22;2.30;;;;;;;24.39;42.55;98637.00;4483000;32;32925;-69
2023/11/02 09:39:00;;;;;;;5.03;1.87;;;;;;;24.40;42.52;98635.91;4483118;32;34834;-69
2023/11/02 09:41:27;;;;;;;7.90;2.40;;;;;;;24.40;42.66;98625.00;4483014;32;33688;-69
2023/11/02 09:43:55;;;;;;;4.95;2.12;;;;;;;24.39;42.65;98617.94;4468715;32;33939;-69
2023/11/02 09:46:27;;;;;;;6.60;2.58;;;;;;;24.38;42.67;98617.06;4482891;32;33355;-68
2023/11/02 09:48:55;;;;;;;8.00;2.30;;;;;;;24.39;42.66;98602.38;4481450;32;33836;-66
2023/11/02 09:51:23;;;;;;;5.18;2.55;;;;;;;24.39;42.64;98594.22;4470140;32;33936;-67
2023/11/02 09:53:51;;;;;;;7.82;2.17;;;;;;;24.38;42.67;98589.00;4485356;32;33774;-69
2023/11/02 09:56:19;;;;;;;7.30;2.60;;;;;;;24.37;42.68;98576.44;4485290;32;33354;-67
2023/11/02 09:58:47;;;;;;;8.67;2.33;;;;;;;24.37;42.74;98574.53;4471037;32;33565;-68
2023/11/02 10:01:15;;;;;;;10.20;2.50;;;;;;;24.39;42.70;98572.41;4483958;32;33908;-69
2023/11/02 10:03:42;;;;;;;8.27;2.10;;;;;;;24.37;42.77;98573.72;4485133;32;34768;-69
2023/11/02 10:06:10;;;;;;;6.85;2.20;;;;;;;24.37;42.75;98571.81;4483784;31;34279;-66
2023/11/02 10:08:38;;;;;;;7.05;2.37;;;;;;;24.38;42.67;98561.72;4485117;32;34661;-68
2023/11/02 10:11:11;;;;;;;6.93;2.12;;;;;;;24.37;42.65;98563.62;4485092;32;33986;-65
2023/11/02 10:13:45;;;;;;;6.05;2.45;;;;;;;24.36;42.74;98561.16;4470776;32;33687;-69
2023/11/02 10:16:13;;;;;;;5.95;2.37;;;;;;;24.36;42.72;98552.97;4471188;32;33220;-70
2023/11/02 10:18:40;;;;;;;5.20;2.10;;;;;;;24.36;42.67;98558.44;4484969;32;33765;-64
2023/11/02 10:21:08;;;;;;;4.37;2.22;;;;;;;24.36;42.68;98553.81;4485079;32;34147;-66
2023/11/02 10:23:49;;;;;;;8.23;2.67;;;;;;;24.35;42.64;98534.97;4473590;32;33756;-68
2023/11/02 10:26:17;;;;;;;7.68;2.42;;;;;;;24.36;42.65;98534.75;4468265;32;33456;-67
2023/11/02 10:28:45;;;;;;;7.68;2.33;;;;;;;24.35;42.68;98513.19;4469289;32;34722;-69
2023/11/02 10:31:17;;;;;;;9.23;2.20;;;;;;;24.35;42.67;98505.00;4455181;32;34855;-68
2023/11/02 10:33:49;;;;;;;7.40;2.58;;;;;;;24.35;42.83;98505.00;4455359;32;33958;-69
2023/11/02 10:36:17;;;;;;;7.90;2.40;;;;;;;24.33;42.75;98498.97;4469317;32;33404;-66
2023/11/02 10:38:45;;;;;;;8.30;2.55;;;;;;;24.33;42.65;98498.97;4468075;32;34354;-69
2023/11/02 10:41:30;;;;;;;4.90;2.12;;;;;;;24.32;42.62;98497.34;4469316;32;33575;-70
2023/11/02 10:43:58;;;;;;;6.18;2.05;;;;;;;24.31;42.53;98490.25;4455104;32;33887;-66
2023/11/02 10:46:27;;;;;;;6.37;1.98;;;;;;;24.29;42.54;98486.94;4455215;32;33644;-68
2023/11/02 10:48:55;;;;;;;;;;;;;;;24.29;42.51;98503.31;4468217;32;33886;-69
2023/11/02 10:51:25;;;;;;;5.40;2.50;;;;;;;24.38;42.30;98493.56;4467815;32;35111;-70
2023/11/02 10:53:58;;;;;;;4.85;1.92;;;;;;;24.30;42.37;98488.62;4467944;32;33943;-67
2023/11/02 10:56:26;;;;;;;4.55;1.90;;;;;;;24.27;42.43;98487.22;4469130;32;34481;-67
2023/11/02 10:58:54;;;;;;;6.85;2.50;;;;;;;24.25;42.44;98464.88;4469176;32;34673;-67
2023/11/02 11:01:23;;;;;;;6.78;2.40;;;;;;;24.25;42.38;98461.31;4454531;32;34732;-69
2023/11/02 11:03:51;;;;;;;5.35;1.90;;;;;;;24.23;42.39;98453.41;4468187;32;33535;-67
2023/11/02 11:06:19;;;;;;;4.80;2.03;;;;;;;24.23;42.39;98488.81;4469082;32;34257;-68
2023/11/02 11:08:46;;;;;;;4.22;2.28;;;;;;;24.22;42.33;98459.94;4468971;32;34648;-66
2023/11/02 11:11:14;;;;;;;5.80;2.25;;;;;;;24.23;42.27;98442.50;4469270;32;34028;-65
2023/11/02 11:13:44;;;;;;;6.60;2.30;;;;;;;24.22;42.19;98437.31;4455013;32;34456;-66
2023/11/02 11:16:12;;;;;;;5.78;2.25;;;;;;;24.22;42.14;98440.03;4467749;32;33453;-66
2023/11/02 11:18:39;;;;;;;6.70;2.55;;;;;;;24.22;42.13;98427.22;4454635;32;33598;-66
2023/11/02 11:21:07;;;;;;;7.10;2.58;;;;;;;24.22;42.16;98429.13;4454891;32;34339;-64
2023/11/02 11:23:37;;;;;;;6.40;2.50;;;;;;;24.21;42.16;98424.78;4479919;32;33916;-69
2023/11/02 11:26:05;;;;;;;6.43;2.40;;;;;;;24.19;42.18;98434.03;4470540;32;33341;-65
2023/11/02 11:28:34;;;;;;;6.60;2.22;;;;;;;24.21;42.14;98419.34;4470434;32;33752;-62
2023/11/02 11:31:02;;;;;;;9.82;2.45;;;;;;;24.20;41.87;98423.94;4484524;32;33688;-65
2023/11/02 11:33:49;;;;;;;7.82;2.22;;;;;;;24.20;40.99;98421.22;4470326;32;33867;-64
2023/11/02 11:36:23;;;;;;;7.30;2.58;;;;;;;24.20;40.25;98413.03;4484519;32;34057;-63
2023/11/02 11:38:51;;;;;;;6.97;2.47;;;;;;;24.15;39.88;98402.97;4482359;32;33612;-66
2023/11/02 11:41:45;;;;;;;7.60;2.50;;;;;;;24.13;39.70;98399.66;4468710;32;34607;-63
2023/11/02 11:44:20;;;;;;;4.68;2.30;;;;;;;24.15;39.52;98400.22;4481204;32;34481;-64
2023/11/02 11:46:52;;;;;;;6.15;2.22;;;;;;;24.11;39.42;98401.03;4470181;32;34461;-64
2023/11/02 11:49:36;;;;;;;11.50;2.80;;;;;;;24.10;39.37;98389.28;4457109;32;33877;-64
2023/11/02 11:52:05;;;;;;;5.57;2.30;;;;;;;24.10;39.30;98369.37;4484146;32;34762;-69
2023/11/02 11:54:33;;;;;;;8.13;2.72;;;;;;;24.07;39.25;98370.75;4482835;32;33890;-66